Latest Weather Observations for Warragul (Nilma North)

IDV60801

Issued at 6:02 am EDT Saturday 19 October 2019 (issued every 10 minutes, with the page automatically refreshed every 10 minutes)

About weather observations | Map of weather stations | Latest weather observations for VIC | Other Formats
Station Details ID: 085313 Name: NILMA NORTH (WARRAGUL) Lat: -38.13 Lon: 145.99 Height: 134.11 m
Data from the previous 72 hours. | See also: Recent months for locations in Victoria
Date/Time
EDT
Temp
°C
App
Temp
°C
Dew
Point
°C
Rel
Hum
%
Delta-T
°C
Wind Press
QNH
hPa
Press
MSL
hPa
Rain since
9am
mm
Dir  Spd
km/h
Gust
km/h
Spd
kts
Gust
kts
19/06:00am 8.5 4.8 6.1 85 1.1 WNW 15 22 8 12 1012.0 1012.0 1.2
19/05:30am 8.0 5.4 6.0 87 0.9 WNW 9 19 5 10 1011.6 1011.6 1.2
19/05:00am 8.0 5.4 6.3 89 0.8 WNW 9 19 5 10 1011.5 1011.5 1.2
19/04:30am 8.2 5.6 6.3 88 0.9 WNW 9 17 5 9 1011.5 1011.5 1.2
19/04:00am 8.9 5.7 6.9 87 0.9 WNW 13 22 7 12 1011.5 1011.5 1.2
19/03:30am 9.3 5.6 7.9 91 0.7 W 17 24 9 13 1011.7 1011.7 1.2
19/03:00am 9.6 5.9 8.0 90 0.8 W 17 24 9 13 1011.8 1011.8 1.2
19/02:30am 9.5 7.4 8.3 92 0.6 WNW 9 19 5 10 1011.9 1011.9 1.2
19/02:00am 9.5 6.9 7.9 90 0.8 WNW 11 20 6 11 1012.1 1012.1 1.2
19/01:30am 9.8 7.8 8.7 93 0.5 WNW 9 22 5 12 1012.4 1012.4 1.2
19/01:00am 9.9 7.6 9.1 95 0.4 WNW 11 20 6 11 1012.4 1012.4 1.2
19/12:30am 10.1 8.7 9.5 96 0.3 WNW 7 15 4 8 1012.6 1012.6 1.2
19/12:00am 9.8 8.3 9.3 97 0.2 NW 7 15 4 8 1012.6 1012.6 1.2
 
Date/Time
EDT
Temp
°C
App
Temp
°C
Dew
Point
°C
Rel
Hum
%
Delta-T
°C
Wind Press
QNH
hPa
Press
MSL
hPa
Rain since
9am
mm
Dir  Spd
km/h
Gust
km/h
Spd
kts
Gust
kts
18/11:30pm 9.7 7.8 9.2 97 0.2 WNW 9 19 5 10 1012.9 1012.9 1.2
18/11:00pm 9.9 6.0 8.8 93 0.5 WNW 19 28 10 15 1012.9 1012.9 0.6
18/10:30pm 11.1 6.7 8.8 86 1.1 W 22 37 12 20 1012.8 1012.8 0.0
18/10:00pm 11.1 6.3 8.8 86 1.1 W 24 37 13 20 1012.6 1012.6 0.0
18/09:30pm 12.6 10.0 10.7 88 1.0 W 15 26 8 14 1012.1 1012.1 0.0
18/09:00pm 12.8 9.3 10.3 85 1.3 WSW 19 35 10 19 1011.6 1011.6 0.0
18/08:30pm 13.7 10.3 9.2 74 2.3 WSW 17 33 9 18 1010.2 1010.1 0.0
18/08:20pm 15.4 12.3 7.2 58 4.1 W 13 50 7 27 1009.8 1009.7 0.0
18/08:00pm 15.1 12.6 5.0 51 4.8 WNW 7 15 4 8 1009.0 1008.9 0.0
18/07:30pm 16.0 12.4 5.0 48 5.2 WNW 13 24 7 13 1008.8 1008.7 0.0
18/07:00pm 16.9 13.1 5.8 48 5.4 WNW 15 26 8 14 1008.6 1008.5 0.0
18/06:30pm 18.4 14.6 5.9 44 6.2 WNW 15 30 8 16 1008.5 1008.4 0.0
18/06:00pm 18.6 14.5 6.4 45 6.1 NW 17 33 9 18 1008.6 1008.5 0.0
18/05:30pm 18.9 14.1 5.7 42 6.5 WNW 20 43 11 23 1008.8 1008.7 0.0
18/05:00pm 19.4 15.4 8.1 48 5.9 WNW 19 41 10 22 1009.1 1009.0 0.0
18/04:30pm 18.1 13.3 7.5 50 5.4 WNW 22 39 12 21 1009.3 1009.2 0.0
18/04:00pm 18.4 13.5 8.4 52 5.2 NW 24 44 13 24 1009.5 1009.4 0.0
18/03:30pm 18.2 13.2 7.9 51 5.3 NW 24 48 13 26 1009.8 1009.7 0.0
18/03:18pm 18.1 12.1 7.2 49 5.5 NW 28 46 15 25 1009.9 1009.8 0.0
18/03:00pm 18.3 14.2 8.6 53 5.1 WNW 20 37 11 20 1010.2 1010.1 0.0
18/02:30pm 17.9 11.4 8.2 53 5.0 WNW 32 54 17 29 1010.7 1010.7 0.0
18/02:22pm 17.9 12.0 7.3 50 5.4 WNW 28 54 15 29 1010.5 1010.5 0.0
18/02:00pm 17.3 11.7 7.1 51 5.1 WNW 26 44 14 24 1010.9 1010.9 0.0
18/01:30pm 17.4 11.2 8.0 54 4.8 WNW 30 50 16 27 1011.3 1011.3 0.0
18/01:12pm 16.8 10.8 7.2 53 4.8 WNW 28 48 15 26 1011.4 1011.4 0.0
18/01:00pm 16.6 10.7 7.5 55 4.6 WNW 28 44 15 24 1011.6 1011.6 0.0
18/12:30pm 16.1 11.1 6.5 53 4.7 WNW 22 37 12 20 1012.3 1012.3 0.0
18/12:16pm 15.8 9.7 6.5 54 4.6 WNW 28 48 15 26 1012.5 1012.5 0.0
18/12:00pm 16.0 11.6 7.5 57 4.3 WNW 20 32 11 17 1012.9 1012.9 0.0
18/11:30am 15.4 11.6 7.4 59 4.0 NW 17 30 9 16 1013.6 1013.5 0.0
18/11:00am 14.4 9.2 5.5 55 4.2 WNW 22 41 12 22 1013.8 1013.7 0.0
18/10:30am 14.0 10.3 6.1 59 3.8 WNW 15 32 8 17 1014.0 1013.9 0.0
18/10:00am 12.8 9.2 6.6 66 3.0 WNW 15 30 8 16 1014.2 1014.1 0.0
18/09:30am 11.7 8.1 6.8 72 2.3 W 15 22 8 12 1014.6 1014.5 0.0
18/09:00am 10.7 6.6 6.3 74 2.1 W 17 26 9 14 1014.7 1014.6 7.4
18/08:30am 10.4 6.3 6.4 76 1.9 W 17 24 9 13 1014.7 1014.6 7.4
18/08:00am 9.2 5.0 5.6 78 1.6 W 17 26 9 14 1014.9 1014.8 7.4
18/07:30am 7.2 5.5 5.7 90 0.7 WNW 4 7 2 4 1014.9 1014.8 7.4
18/07:00am 6.0 3.7 4.8 92 0.5 WNW 6 9 3 5 1015.0 1014.9 7.4
18/06:30am 5.9 3.4 4.7 92 0.5 NW 7 15 4 8 1015.0 1014.9 7.4
18/06:00am 5.0 2.5 4.0 93 0.4 NW 6 9 3 5 1014.9 1014.8 7.4
18/05:30am 5.8 3.2 4.4 91 0.6 NW 7 15 4 8 1014.9 1014.8 7.4
18/05:00am 6.7 3.9 5.2 90 0.7 NW 9 17 5 9 1015.0 1014.9 7.4
18/04:30am 7.1 4.4 5.4 89 0.8 NW 9 19 5 10 1015.0 1014.9 7.4
18/04:00am 7.4 4.4 5.9 90 0.7 WNW 11 19 6 10 1015.1 1015.0 7.4
18/03:30am 8.0 5.5 6.6 91 0.6 WNW 9 19 5 10 1015.2 1015.1 7.4
18/03:00am 8.9 6.2 7.5 91 0.7 WNW 11 20 6 11 1015.2 1015.1 7.4
18/02:30am 9.1 6.6 8.3 95 0.4 WNW 11 17 6 9 1015.2 1015.1 7.4
18/02:00am 8.8 5.8 7.7 93 0.5 W 13 20 7 11 1015.2 1015.1 7.4
18/01:30am 8.9 5.5 7.7 92 0.6 WNW 15 22 8 12 1015.5 1015.4 7.4
18/01:00am 9.6 7.7 9.1 97 0.2 WNW 9 19 5 10 1015.8 1015.7 7.4
18/12:30am 9.6 7.7 9.1 97 0.2 WNW 9 15 5 8 1015.9 1015.8 7.4
18/12:00am 9.6 6.9 9.0 96 0.3 W 13 19 7 10 1016.0 1015.9 7.4
 
Date/Time
EDT
Temp
°C
App
Temp
°C
Dew
Point
°C
Rel
Hum
%
Delta-T
°C
Wind Press
QNH
hPa
Press
MSL
hPa
Rain since
9am
mm
Dir  Spd
km/h
Gust
km/h
Spd
kts
Gust
kts
17/11:30pm 9.5 6.7 8.6 94 0.4 W 13 17 7 9 1016.0 1015.9 7.4
17/11:00pm 9.6 6.3 8.2 91 0.7 W 15 22 8 12 1015.8 1015.7 7.4
17/10:30pm 9.9 5.8 8.7 92 0.6 W 20 33 11 18 1015.6 1015.5 7.4
17/10:00pm 9.7 6.3 9.1 96 0.3 WNW 17 28 9 15 1015.4 1015.3 7.4
17/09:30pm 9.8 6.5 9.5 98 0.2 W 17 24 9 13 1015.1 1015.0 7.4
17/09:00pm 10.1 6.6 8.7 91 0.7 W 17 26 9 14 1014.7 1014.6 7.2
17/08:30pm 10.2 6.5 9.4 95 0.4 W 19 26 10 14 1014.0 1013.9 7.2
17/08:00pm 10.0 6.2 9.1 94 0.4 W 19 28 10 15 1013.2 1013.2 7.2
17/07:30pm 10.2 5.4 8.8 91 0.7 W 24 41 13 22 1012.4 1012.4 7.2
17/07:00pm 10.1 6.1 9.2 94 0.4 W 20 32 11 17 1011.7 1011.7 7.2
17/06:30pm 10.3 6.6 9.5 95 0.4 W 19 24 10 13 1011.4 1011.4 7.0
17/06:00pm 10.5 6.8 10.0 97 0.3 W 20 32 11 17 1010.6 1010.6 6.6
17/05:30pm 10.4 6.1 9.3 93 0.6 W 22 41 12 22 1010.1 1010.0 5.8
17/05:00pm 10.6 8.0 9.4 92 0.6 WNW 13 22 7 12 1009.4 1009.3 4.8
17/04:30pm 9.9 7.6 9.1 95 0.4 WNW 11 20 6 11 1008.7 1008.6 4.6
17/04:00pm 9.5 7.1 8.7 95 0.4 WNW 11 22 6 12 1009.0 1008.9 3.8
17/03:30pm 10.1 5.8 6.8 80 1.6 WNW 19 33 10 18 1008.8 1008.7 3.2
17/03:00pm 10.2 4.6 7.1 81 1.5 WNW 26 37 14 20 1008.8 1008.7 3.2
17/02:38pm 10.3 4.0 7.2 81 1.5 WNW 30 50 16 27 1008.6 1008.5 3.2
17/02:30pm 10.5 5.5 8.1 85 1.2 W 24 35 13 19 1008.7 1008.6 3.2
17/02:00pm 9.6 6.2 9.1 97 0.2 WNW 17 32 9 17 1008.7 1008.6 3.2
17/01:31pm 10.3 4.4 7.7 84 1.3 W 28 48 15 26 1008.6 1008.5 1.8
17/01:30pm 10.8 5.5 8.4 85 1.2 W 26 41 14 22 1008.5 1008.4 1.6
17/01:00pm 11.6 5.8 7.9 78 1.8 W 28 52 15 28 1007.8 1007.7 1.6
17/12:30pm 12.1 7.1 8.2 77 1.9 WNW 24 41 13 22 1007.9 1007.8 1.0
17/12:00pm 11.3 7.1 8.3 82 1.5 WNW 20 32 11 17 1008.3 1008.2 1.0
17/11:30am 11.1 7.2 9.4 89 0.9 WNW 20 33 11 18 1008.3 1008.2 1.0
17/11:00am 8.8 5.1 7.9 94 0.4 WNW 17 28 9 15 1008.5 1008.4 1.0
17/10:30am 8.3 2.3 7.2 93 0.5 WNW 28 44 15 24 1008.5 1008.4 0.8
17/10:00am 10.4 6.7 8.0 85 1.2 NW 17 33 9 18 1008.1 1008.0 0.2
17/09:30am 9.6 4.2 6.5 81 1.5 WNW 24 44 13 24 1007.7 1007.6 0.0
17/09:00am 9.4 6.4 7.5 88 0.9 WNW 13 30 7 16 1007.7 1007.6 19.4
17/08:30am 9.0 7.5 9.0 100 0.0 NW 7 15 4 8 1007.8 1007.7 19.4
17/08:00am 7.9 6.3 7.9 100 0.0 WNW 6 9 3 5 1007.6 1007.5 19.4
17/07:30am 7.5 3.3 7.5 100 0.0 WNW 19 39 10 21 1007.3 1007.2 19.2
17/07:20am 7.7 3.9 7.7 100 0.0 W 17 41 9 22 1007.2 1007.1 18.8
17/07:00am 8.5 6.8 8.5 100 0.0 W 7 13 4 7 1006.7 1006.6 18.0
17/06:30am 8.5 5.7 8.5 100 0.0 W 13 19 7 10 1006.3 1006.2 17.4
17/06:00am 8.3 4.1 8.3 100 0.0 W 20 32 11 17 1006.3 1006.2 17.2
17/05:30am 9.3 5.9 9.3 100 0.0 WNW 17 33 9 18 1005.6 1005.6 12.4
17/05:00am 8.2 6.5 8.2 100 0.0 WNW 7 11 4 6 1005.6 1005.6 12.4
17/04:30am 8.1 6.9 8.1 100 0.0 WNW 4 7 2 4 1005.4 1005.4 12.4
17/04:00am 9.0 7.6 9.0 100 0.0 NNE 6 9 3 5 1005.6 1005.6 12.4
17/03:30am 8.5 7.4 8.5 100 0.0 NNE 4 7 2 4 1005.9 1005.8 12.4
17/03:00am 9.2 8.3 9.2 100 0.0 NE 4 6 2 3 1006.3 1006.2 12.4
17/02:30am 9.0 8.4 9.0 100 0.0 ESE 2 6 1 3 1006.8 1006.7 12.4
17/02:00am 9.4 8.0 9.4 100 0.0 W 7 13 4 7 1007.7 1007.6 12.4
17/01:30am 10.0 8.9 10.0 100 0.0 ESE 6 7 3 4 1007.0 1006.9 10.0
17/01:00am 10.3 9.7 10.3 100 0.0 ESE 4 6 2 3 1007.8 1007.7 10.0
17/12:30am 10.4 9.8 10.4 100 0.0 E 4 6 2 3 1008.1 1008.0 10.0
17/12:00am 10.9 11.2 10.9 100 0.0 CALM 0 0 0 0 1008.5 1008.4 10.0
 
Date/Time
EDT
Temp
°C
App
Temp
°C
Dew
Point
°C
Rel
Hum
%
Delta-T
°C
Wind Press
QNH
hPa
Press
MSL
hPa
Rain since
9am
mm
Dir  Spd
km/h
Gust
km/h
Spd
kts
Gust
kts
16/11:30pm 11.3 11.0 11.3 100 0.0 W 4 6 2 3 1008.6 1008.5 10.0
16/11:00pm 11.4 11.5 11.4 100 0.0 ESE 2 4 1 2 1008.9 1008.8 9.8
16/10:30pm 11.5 12.0 11.5 100 0.0 CALM 0 0 0 0 1009.0 1008.9 9.6
16/10:00pm 11.2 11.2 11.2 100 0.0 ESE 2 4 1 2 1009.0 1008.9 9.4
16/09:30pm 11.4 11.8 11.4 100 0.0 CALM 0 0 0 0 1009.0 1008.9 9.4
16/09:00pm 11.6 12.1 11.6 100 0.0 CALM 0 0 0 0 1009.1 1009.0 9.4
16/08:30pm 11.7 11.9 11.7 100 0.0 NW 2 4 1 2 1009.1 1009.0 9.4
16/08:00pm 11.5 11.6 11.5 100 0.0 NW 2 6 1 3 1008.8 1008.7 9.4
16/07:30pm 11.5 11.2 11.5 100 0.0 NW 4 6 2 3 1008.5 1008.4 9.4
16/07:00pm 11.8 11.6 11.8 100 0.0 WNW 4 9 2 5 1008.2 1008.1 9.4
16/06:30pm 11.8 11.0 11.8 100 0.0 NW 7 13 4 7 1008.4 1008.3 8.2
16/06:00pm 11.6 10.4 11.6 100 0.0 NW 9 15 5 8 1008.1 1008.0 7.6
16/05:30pm 11.7 10.0 11.1 96 0.3 NW 11 22 6 12 1008.0 1007.9 5.8
16/05:00pm 16.5 15.2 11.4 72 2.8 WNW 9 17 5 9 1007.2 1007.1 0.2
16/04:30pm 17.8 15.4 10.2 61 4.1 WNW 13 24 7 13 1007.1 1007.0 0.0
16/04:00pm 18.2 16.2 10.3 60 4.3 WNW 11 20 6 11 1007.1 1007.0 0.0
16/03:30pm 18.6 17.3 11.2 62 4.1 NW 9 20 5 11 1007.5 1007.4 0.0
16/03:00pm 18.1 16.5 11.4 65 3.7 NW 11 22 6 12 1008.3 1008.2 0.0
16/02:30pm 17.3 16.7 12.2 72 2.8 NW 7 13 4 7 1008.8 1008.7 0.0
16/02:00pm 16.1 16.1 12.5 79 2.0 NE 4 7 2 4 1009.0 1008.9 0.0
16/01:30pm 14.9 15.1 12.0 83 1.6 ESE 2 2 1 1 1009.3 1009.2 0.0
16/01:00pm 14.8 15.2 12.5 86 1.3 ESE 2 6 1 3 1009.6 1009.5 0.0
16/12:30pm 13.9 13.3 11.8 87 1.1 ENE 6 9 3 5 1010.0 1009.9 0.0
16/12:00pm 13.7 13.0 12.1 90 0.9 E 7 11 4 6 1009.7 1009.6 0.0
16/11:30am 13.2 12.5 12.1 93 0.6 ENE 7 13 4 7 1010.1 1010.0 0.0
16/11:00am 12.7 12.0 12.1 96 0.3 ENE 7 9 4 5 1010.7 1010.7 0.0
16/10:30am 12.5 10.9 11.6 94 0.5 ENE 11 17 6 9 1010.8 1010.8 0.0
16/10:00am 12.2 10.9 11.1 93 0.6 E 9 13 5 7 1010.9 1010.9 0.0
16/09:30am 12.1 10.7 10.8 92 0.7 ESE 9 15 5 8 1010.7 1010.7 0.0
16/09:00am 11.4 10.0 10.8 96 0.3 E 9 15 5 8 1010.7 1010.7 0.0
16/08:30am 11.0 9.9 10.7 98 0.2 ESE 7 9 4 5 1011.2 1011.2 0.0
16/08:00am 10.9 10.4 10.6 98 0.2 ESE 4 7 2 4 1011.4 1011.4 0.0
16/07:30am 10.6 9.0 10.3 98 0.2 ENE 9 15 5 8 1010.9 1010.9 0.0
16/07:00am 10.4 8.4 10.2 99 0.1 ENE 11 17 6 9 1011.3 1011.3 0.0
16/06:30am 10.3 10.4 10.1 99 0.1 CALM 0 0 0 0 1012.1 1012.1 0.0

Other formats

Comma delimited format used in spreadsheet applications
http://www.bom.gov.au/fwo/IDV60801/IDV60801.99806.axf

JavaScript Object Notation format (JSON) in row-major order
http://www.bom.gov.au/fwo/IDV60801/IDV60801.99806.json

Data quality

Most of these data are generated automatically and are frequently updated. Quality checks on data are not normally performed. It is possible for incorrect values to appear. Refer to information at About Latest Weather Observations and please check the disclaimer before using these data.